»·PEaware :: SWA4343 KSAN-KSFO

SWA4343 :: KSAN-KSFO

FLIGHT INFORMATION

Flight Status: Arrived
Operator:
Southwest Airlines
More flights by this operator :: More flights under this callsign
Pilot: Skye D. (10623)
Aircraft: BOEING 737-300
(B733)
More flights by this aircraft type
Origin: KSAN San Diego Intl-Lindbergh
United States
Destination: KSFO San Francisco Intl
United States
More flights between these airports :: More routes between these airports
Route: ECHHO2 IKAYE RIZIN SPLNT STOKD BSR BSR3
File this flight plan on PilotEdge
Remarks:
Altitude:
(Current/Filed)
36,000ft
Speed:
(Current/Filed)
438kts
Departed: 14-Feb-18 10:32 AM
Arrived: 14-Feb-18 11:49 AM
Distance/Time
Traveled:
388nm/1:17
Distance/Time
To Go:
Arrived

Flight Plot

Page will automatically refresh every two minutes.

Flight plan parsing failed; only flown route is shown


Map Options




Map Legend


Flown Route
Filed Route
Departure Airport
Arrival Airport
Navaid (VOR, NDB)
Fix

Horizontal Profiles

Position Reports

Time Latitude Longitude Heading Altitude Ground
Speed
14-Feb-18 10:13 32.733227 -117.196096 199 24ft 0kts
14-Feb-18 10:14 32.733227 -117.196096 199 24ft 0kts
14-Feb-18 10:15 32.733227 -117.196096 199 24ft 0kts
14-Feb-18 10:16 32.733227 -117.196096 199 24ft 0kts
14-Feb-18 10:17 32.733227 -117.196096 199 24ft 0kts
14-Feb-18 10:18 32.733227 -117.196096 199 24ft 0kts
14-Feb-18 10:19 32.733227 -117.196096 199 24ft 0kts
14-Feb-18 10:20 32.733227 -117.196096 199 24ft 0kts
14-Feb-18 10:21 32.733227 -117.196096 199 24ft 0kts
14-Feb-18 10:22 32.733227 -117.196096 199 24ft 0kts
14-Feb-18 10:23 32.733227 -117.196096 199 24ft 0kts
14-Feb-18 10:24 32.733227 -117.196096 199 24ft 0kts
14-Feb-18 10:25 32.733227 -117.196096 199 24ft 0kts
14-Feb-18 10:26 32.733227 -117.196096 199 24ft 0kts
14-Feb-18 10:27 32.733227 -117.196096 199 24ft 0kts
14-Feb-18 10:28 32.733227 -117.196096 199 24ft 0kts
14-Feb-18 10:29 32.733346 -117.196029 207 24ft 1kts
14-Feb-18 10:30 32.733844 -117.195760 205 24ft 1kts
14-Feb-18 10:31 32.734051 -117.195910 93 24ft 1kts
14-Feb-18 10:32 32.734064 -117.195978 104 24ft 0kts
14-Feb-18 10:33 32.734060 -117.195959 104 24ft 1kts
14-Feb-18 10:34 32.733467 -117.193562 106 24ft 13kts
14-Feb-18 10:35 32.732272 -117.188448 105 24ft 23kts
14-Feb-18 10:36 32.730587 -117.181687 105 24ft 26kts
14-Feb-18 10:37 32.729463 -117.176991 93 24ft 5kts
14-Feb-18 10:38 32.730155 -117.175526 292 24ft 4kts
14-Feb-18 10:39 32.734286 -117.192838 285 149ft 149kts
14-Feb-18 10:40 32.751426 -117.238712 302 2272ft 189kts
14-Feb-18 10:41 32.783561 -117.288923 304 4486ft 231kts
14-Feb-18 10:42 32.843086 -117.323520 339 6741ft 277kts
14-Feb-18 10:43 32.914727 -117.352158 339 9435ft 295kts
14-Feb-18 10:44 32.989715 -117.396846 315 11013ft 340kts
14-Feb-18 10:45 33.057868 -117.468150 314 13511ft 350kts
14-Feb-18 10:46 33.128034 -117.541430 313 15577ft 365kts
14-Feb-18 10:47 33.201452 -117.619841 310 17484ft 377kts
14-Feb-18 10:48 33.275466 -117.700782 312 19345ft 387kts
14-Feb-18 10:49 33.357066 -117.779245 312 20965ft 399kts
14-Feb-18 10:50 33.435720 -117.855154 310 22216ft 412kts
14-Feb-18 10:51 33.515221 -117.932071 309 23385ft 424kts
14-Feb-18 10:52 33.574761 -118.034748 285 24736ft 393kts
14-Feb-18 10:53 33.624298 -118.144357 285 26054ft 398kts
14-Feb-18 10:54 33.675207 -118.256620 285 27265ft 402kts
14-Feb-18 10:55 33.726408 -118.369862 286 28259ft 408kts
14-Feb-18 10:56 33.777636 -118.483505 287 29559ft 403kts
14-Feb-18 10:57 33.828672 -118.597091 287 30625ft 401kts
14-Feb-18 10:58 33.877913 -118.706451 287 31571ft 401kts
14-Feb-18 10:59 33.927803 -118.785327 310 32438ft 422kts
14-Feb-18 11:00 34.022529 -118.883098 311 33345ft 420kts
14-Feb-18 11:01 34.103643 -118.968503 311 34117ft 417kts
14-Feb-18 11:02 34.160092 -119.040416 294 34522ft 400kts
14-Feb-18 11:03 34.213536 -119.146332 295 35038ft 399kts
14-Feb-18 11:04 34.268793 -119.253845 295 35467ft 399kts
14-Feb-18 11:05 34.322849 -119.359196 298 35882ft 398kts
14-Feb-18 11:06 34.376791 -119.464654 298 36120ft 400kts
14-Feb-18 11:07 34.435817 -119.564368 311 36200ft 409kts
14-Feb-18 11:08 34.511296 -119.655792 310 36199ft 410kts
14-Feb-18 11:09 34.585534 -119.746712 310 36202ft 409kts
14-Feb-18 11:10 34.659305 -119.837837 311 36202ft 406kts
14-Feb-18 11:11 34.733139 -119.929317 311 36222ft 405kts
14-Feb-18 11:12 34.805832 -120.019608 311 36225ft 399kts
14-Feb-18 11:13 34.878081 -120.109615 312 36216ft 397kts
14-Feb-18 11:14 34.950150 -120.199631 312 36221ft 397kts
14-Feb-18 11:15 35.021913 -120.289505 313 36235ft 394kts
14-Feb-18 11:16 35.092847 -120.378186 315 36208ft 389kts
14-Feb-18 11:17 35.165061 -120.459399 316 36220ft 393kts
14-Feb-18 11:18 35.240386 -120.543832 316 36211ft 392kts
14-Feb-18 11:19 35.316576 -120.629635 316 36211ft 391kts
14-Feb-18 11:20 35.390602 -120.712733 316 36212ft 391kts
14-Feb-18 11:21 35.465603 -120.797471 316 36216ft 391kts
14-Feb-18 11:22 35.538301 -120.881915 315 36231ft 391kts
14-Feb-18 11:23 35.612378 -120.968580 315 36229ft 391kts
14-Feb-18 11:24 35.685939 -121.054807 315 36230ft 391kts
14-Feb-18 11:25 35.757390 -121.138770 317 33823ft 385kts
14-Feb-18 11:26 35.827267 -121.221110 319 31146ft 373kts
14-Feb-18 11:27 35.898599 -121.305343 319 28449ft 384kts
14-Feb-18 11:28 35.966876 -121.386245 320 26650ft 372kts
14-Feb-18 11:29 36.039004 -121.471884 320 24600ft 366kts
14-Feb-18 11:30 36.108072 -121.554078 320 22665ft 361kts
14-Feb-18 11:31 36.177133 -121.636270 320 20729ft 356kts
14-Feb-18 11:32 36.251254 -121.702349 327 19748ft 360kts
14-Feb-18 11:33 36.326733 -121.767659 327 18607ft 346kts
14-Feb-18 11:34 36.402101 -121.833079 327 17635ft 344kts
14-Feb-18 11:35 36.480942 -121.887406 347 16682ft 339kts
14-Feb-18 11:36 36.567989 -121.912510 347 15735ft 338kts
14-Feb-18 11:37 36.655264 -121.937997 347 14785ft 338kts
14-Feb-18 11:38 36.741830 -121.963362 347 13842ft 338kts
14-Feb-18 11:39 36.825074 -121.985311 348 12925ft 330kts
14-Feb-18 11:40 36.907038 -122.006735 347 11950ft 297kts
14-Feb-18 11:41 36.979460 -122.025702 347 10973ft 276kts
14-Feb-18 11:42 37.049203 -122.044066 347 10100ft 273kts
14-Feb-18 11:43 37.117253 -122.061956 347 10050ft 274kts
14-Feb-18 11:44 37.186632 -122.080188 347 10074ft 274kts
14-Feb-18 11:45 37.250809 -122.097149 347 8611ft 268kts
14-Feb-18 11:46 37.315709 -122.103355 3 7139ft 260kts
14-Feb-18 11:47 37.378628 -122.097703 353 5672ft 252kts
14-Feb-18 11:48 37.432761 -122.127241 333 4261ft 245kts
14-Feb-18 11:49 37.483955 -122.159571 333 3141ft 233kts
14-Feb-18 11:50 37.527108 -122.190366 317 3036ft 183kts
14-Feb-18 11:51 37.555493 -122.231706 302 2202ft 181kts
14-Feb-18 11:52 37.575925 -122.273560 298 1520ft 152kts
14-Feb-18 11:53 37.592287 -122.313828 300 874ft 145kts
14-Feb-18 11:54 37.606552 -122.346023 297 305ft 136kts
14-Feb-18 11:55 37.618368 -122.374183 296 20ft 60kts
14-Feb-18 11:56 37.618679 -122.378732 210 20ft 9kts
14-Feb-18 11:57 37.615030 -122.379765 207 20ft 17kts
14-Feb-18 11:58 37.611023 -122.383056 290 20ft 14kts
14-Feb-18 11:59 37.612116 -122.384232 33 20ft 5kts
14-Feb-18 12:00 37.612258 -122.384121 31 20ft 0kts
14-Feb-18 12:01 37.612258 -122.384121 31 20ft 0kts

Navigation Log

Ident Type
Flight plan parsing failed, navigation log unavailable